createdAt,value
2023-05-30T00:01:08.508Z,31.63
2023-05-30T00:03:38.297Z,33.10
2023-05-30T00:04:32.909Z,28.50
2023-05-30T00:06:06.555Z,32.13
2023-05-30T00:08:33.676Z,38.20
2023-05-30T00:11:00.789Z,38.25
2023-05-30T00:13:41.633Z,36.22
2023-05-30T00:16:08.881Z,31.98
2023-05-30T00:18:36.014Z,33.10
2023-05-30T00:21:07.567Z,38.40
2023-05-30T00:23:36.966Z,37.28
2023-05-30T00:26:05.058Z,33.90
2023-05-30T00:28:32.212Z,33.55
2023-05-30T00:30:59.511Z,35.83
2023-05-30T00:33:27.350Z,36.83
2023-05-30T00:35:54.301Z,36.90
2023-05-30T00:41:14.513Z,38.83
2023-05-30T00:47:17.670Z,37.28
2023-05-30T00:49:09.069Z,39.75
2023-05-30T00:51:36.402Z,33.15
2023-05-30T00:54:04.380Z,35.05
2023-05-30T00:56:31.906Z,34.13
2023-05-30T00:59:00.717Z,38.72
2023-05-30T01:01:27.957Z,37.13
2023-05-30T01:03:57.765Z,33.78
2023-05-30T01:06:28.273Z,35.33
2023-05-30T01:08:55.635Z,33.38
2023-05-30T01:11:31.857Z,31.63
2023-05-30T01:14:17.937Z,36.63
2023-05-30T01:17:17.434Z,34.40
2023-05-30T01:20:17.983Z,34.45
2023-05-30T01:23:40.887Z,33.92
2023-05-30T01:26:32.745Z,33.80
2023-05-30T01:29:04.005Z,42.35
2023-05-30T01:31:33.889Z,34.58
2023-05-30T01:34:02.490Z,32.65
2023-05-30T01:36:31.952Z,34.22
2023-05-30T01:38:59.334Z,37.30
2023-05-30T01:41:38.220Z,32.13
2023-05-30T01:44:31.228Z,32.28
2023-05-30T01:47:15.063Z,35.95
2023-05-30T01:50:01.049Z,35.85
2023-05-30T01:52:32.991Z,35.63
2023-05-30T01:55:07.254Z,36.72
2023-05-30T01:57:47.209Z,37.28
2023-05-30T02:00:16.371Z,34.60
2023-05-30T02:02:45.959Z,35.00
2023-05-30T02:05:13.496Z,38.28
2023-05-30T02:07:40.817Z,38.03
2023-05-30T02:10:08.298Z,41.17
2023-05-30T02:12:36.455Z,43.67
2023-05-30T02:15:05.013Z,42.17
2023-05-30T02:17:33.578Z,44.50
2023-05-30T02:20:01.236Z,42.95
2023-05-30T02:22:36.059Z,41.88
2023-05-30T02:25:03.580Z,34.97
2023-05-30T02:27:30.884Z,37.58
2023-05-30T02:29:58.196Z,40.50
2023-05-30T02:32:25.396Z,40.40
2023-05-30T02:34:53.138Z,37.72
2023-05-30T02:37:20.166Z,36.08
2023-05-30T02:39:47.116Z,41.35
2023-05-30T02:42:14.073Z,40.38
2023-05-30T02:44:41.059Z,36.75
2023-05-30T02:47:10.016Z,37.58
2023-05-30T02:49:37.316Z,38.25
2023-05-30T02:52:05.243Z,32.53
2023-05-30T02:54:40.982Z,33.47
2023-05-30T02:57:26.458Z,36.60
2023-05-30T03:00:22.801Z,33.50
2023-05-30T03:03:13.214Z,36.17
2023-05-30T03:05:49.150Z,33.70
2023-05-30T03:10:59.788Z,37.75
2023-05-30T03:13:27.078Z,38.92
2023-05-30T03:15:54.857Z,35.67
2023-05-30T03:18:21.796Z,37.75
2023-05-30T03:20:49.208Z,33.35
2023-05-30T03:23:17.631Z,33.38
2023-05-30T03:25:45.171Z,30.25
2023-05-30T03:28:12.433Z,34.15
2023-05-30T03:30:59.643Z,31.77
2023-05-30T03:33:29.374Z,32.30
2023-05-30T03:35:57.096Z,35.92
2023-05-30T03:38:24.045Z,37.97
2023-05-30T03:40:51.085Z,37.45
2023-05-30T03:43:18.011Z,39.97
2023-05-30T03:45:45.398Z,39.38
2023-05-30T03:48:12.809Z,39.15
2023-05-30T03:50:39.755Z,43.47
2023-05-30T03:53:07.026Z,34.13
2023-05-30T03:55:36.675Z,41.50
2023-05-30T03:58:03.864Z,36.85
2023-05-30T04:00:32.123Z,35.63
2023-05-30T04:03:02.064Z,36.92
2023-05-30T04:05:29.070Z,36.58
2023-05-30T04:07:56.144Z,32.95
2023-05-30T04:10:23.358Z,34.80
2023-05-30T04:12:52.260Z,33.90
2023-05-30T04:15:19.383Z,37.08
2023-05-30T04:17:47.178Z,37.70
2023-05-30T04:20:16.325Z,34.90
2023-05-30T04:22:44.948Z,31.90
2023-05-30T04:25:13.739Z,34.58
2023-05-30T04:27:49.408Z,33.25
2023-05-30T04:30:18.490Z,35.58
2023-05-30T04:32:46.418Z,32.17
2023-05-30T04:35:17.081Z,36.55
2023-05-30T04:37:45.562Z,35.75
2023-05-30T04:40:14.238Z,32.38
2023-05-30T04:42:43.345Z,30.40
2023-05-30T04:45:11.712Z,33.08
2023-05-30T04:47:40.212Z,37.55
2023-05-30T04:50:08.244Z,32.40
2023-05-30T04:52:35.395Z,30.33
2023-05-30T04:55:02.649Z,31.40
2023-05-30T04:57:30.084Z,33.13
2023-05-30T04:59:58.411Z,29.00
2023-05-30T05:02:29.956Z,30.55
2023-05-30T05:04:57.521Z,37.28
2023-05-30T05:07:37.978Z,29.65
2023-05-30T05:10:07.874Z,30.05
2023-05-30T05:12:34.871Z,31.45
2023-05-30T05:15:01.900Z,30.02
2023-05-30T05:17:29.210Z,27.67
2023-05-30T05:19:57.004Z,30.23
2023-05-30T05:22:24.031Z,27.77
2023-05-30T05:24:51.387Z,27.65
2023-05-30T05:27:18.523Z,27.25
2023-05-30T05:29:45.419Z,29.70
2023-05-30T05:32:12.409Z,28.58
2023-05-30T05:34:39.333Z,29.83
2023-05-30T05:37:06.716Z,28.42
2023-05-30T05:39:33.680Z,25.10
2023-05-30T05:42:02.475Z,24.17
2023-05-30T05:44:31.161Z,19.85
2023-05-30T05:46:59.963Z,27.90
2023-05-30T05:49:27.088Z,18.02
2023-05-30T05:51:54.847Z,20.88
2023-05-30T05:54:21.751Z,18.45
2023-05-30T05:56:49.007Z,27.02
2023-05-30T05:59:16.476Z,27.25
2023-05-30T06:01:46.499Z,27.10
2023-05-30T06:04:13.775Z,23.30
2023-05-30T06:06:40.987Z,24.20
2023-05-30T06:09:08.122Z,24.67
2023-05-30T06:11:35.086Z,23.30
2023-05-30T06:14:02.119Z,22.13
2023-05-30T06:16:29.253Z,23.13
2023-05-30T06:18:56.271Z,20.15
2023-05-30T06:21:23.603Z,18.77
2023-05-30T06:23:50.679Z,18.90
2023-05-30T06:26:17.745Z,19.45
2023-05-30T06:28:48.875Z,22.27
2023-05-30T06:31:16.182Z,23.33
2023-05-30T06:33:43.313Z,29.30
2023-05-30T06:36:11.503Z,21.35
2023-05-30T06:38:38.523Z,25.50
2023-05-30T06:41:05.539Z,26.40
2023-05-30T06:43:32.474Z,21.45
2023-05-30T06:45:59.509Z,26.83
2023-05-30T06:48:26.708Z,26.05
2023-05-30T06:50:54.768Z,24.98
2023-05-30T06:53:22.875Z,24.65
2023-05-30T06:55:50.116Z,19.67
2023-05-30T06:58:19.346Z,25.75
2023-05-30T07:00:46.601Z,26.08
2023-05-30T07:03:13.730Z,23.00
2023-05-30T07:05:40.903Z,25.73
2023-05-30T07:08:08.278Z,21.20
2023-05-30T07:10:36.253Z,26.90
2023-05-30T07:13:04.036Z,19.95
2023-05-30T07:15:32.579Z,20.40
2023-05-30T07:17:59.943Z,27.00
2023-05-30T07:20:27.244Z,24.48
2023-05-30T07:22:55.154Z,22.65
2023-05-30T07:25:22.014Z,21.77
2023-05-30T07:27:48.967Z,16.50
2023-05-30T07:30:16.006Z,17.80
2023-05-30T07:32:43.087Z,23.02
2023-05-30T07:35:10.089Z,20.35
2023-05-30T07:37:38.225Z,20.08
2023-05-30T07:40:06.569Z,15.15
2023-05-30T07:42:40.127Z,19.63
2023-05-30T07:45:07.965Z,17.90
2023-05-30T07:47:36.746Z,17.45
2023-05-30T07:50:04.138Z,13.07
2023-05-30T07:52:31.402Z,11.02
2023-05-30T07:54:58.340Z,15.35
2023-05-30T07:57:25.452Z,14.85
2023-05-30T07:59:52.527Z,14.38
2023-05-30T08:02:20.612Z,16.30
2023-05-30T08:04:47.782Z,14.40
2023-05-30T08:07:14.868Z,16.63
2023-05-30T08:09:42.043Z,12.68
2023-05-30T08:12:18.622Z,12.88
2023-05-30T08:14:46.427Z,11.20
2023-05-30T08:17:20.099Z,16.10
2023-05-30T08:19:47.033Z,11.07
2023-05-30T08:22:13.943Z,16.52
2023-05-30T08:24:44.562Z,12.50
2023-05-30T08:27:11.835Z,13.27
2023-05-30T08:29:39.521Z,7.40
2023-05-30T08:32:07.193Z,9.18
2023-05-30T08:34:34.198Z,9.50
2023-05-30T08:37:01.181Z,8.38
2023-05-30T08:39:28.159Z,7.07
2023-05-30T08:41:55.162Z,9.10
2023-05-30T08:44:22.098Z,12.98
2023-05-30T08:46:49.159Z,10.60
2023-05-30T08:49:23.173Z,8.88
2023-05-30T08:51:51.305Z,10.98
2023-05-30T08:54:27.243Z,11.27
2023-05-30T08:57:06.217Z,11.40
2023-05-30T08:59:33.531Z,7.78
2023-05-30T09:02:01.915Z,9.02
2023-05-30T09:04:30.930Z,14.02
2023-05-30T09:06:58.516Z,15.18
2023-05-30T09:09:25.686Z,10.07
2023-05-30T09:11:53.539Z,9.85
2023-05-30T09:14:21.550Z,6.22
2023-05-30T09:16:48.891Z,6.00
2023-05-30T09:19:17.221Z,6.32
2023-05-30T09:21:45.046Z,7.47
2023-05-30T09:24:12.062Z,6.95
2023-05-30T09:26:39.977Z,10.07
2023-05-30T09:29:11.922Z,8.85
2023-05-30T09:31:39.332Z,6.60
2023-05-30T09:34:09.049Z,5.93
2023-05-30T09:36:36.650Z,6.07
2023-05-30T09:39:08.028Z,7.00
2023-05-30T09:41:36.024Z,5.30
2023-05-30T09:44:07.297Z,5.65
2023-05-30T09:46:36.447Z,5.70
2023-05-30T09:49:14.232Z,6.88
2023-05-30T09:51:42.434Z,5.47
2023-05-30T09:54:10.855Z,5.18
2023-05-30T09:56:42.253Z,8.82
2023-05-30T09:59:11.692Z,5.35
2023-05-30T10:01:49.687Z,5.82
2023-05-30T10:04:22.908Z,7.07
2023-05-30T10:06:54.790Z,6.05
2023-05-30T10:09:24.081Z,9.02
2023-05-30T10:11:52.886Z,6.78
2023-05-30T10:14:20.469Z,5.95
2023-05-30T10:16:53.076Z,5.45
2023-05-30T10:19:27.255Z,6.53
2023-05-30T10:21:59.884Z,7.25
2023-05-30T10:24:27.687Z,7.60
2023-05-30T10:27:03.002Z,7.35
2023-05-30T10:29:42.104Z,10.00
2023-05-30T10:32:09.233Z,6.15
2023-05-30T10:34:49.444Z,12.02
2023-05-30T10:37:17.634Z,10.18
2023-05-30T10:40:11.786Z,9.15
2023-05-30T10:45:53.256Z,8.90
2023-05-30T10:48:27.507Z,9.65
2023-05-30T10:51:00.965Z,12.80
2023-05-30T10:53:29.137Z,7.47
2023-05-30T10:55:56.736Z,12.10
2023-05-30T10:58:43.536Z,13.32
2023-05-30T11:01:25.257Z,7.35
2023-05-30T11:04:15.613Z,9.88
2023-05-30T11:06:47.268Z,8.10
2023-05-30T11:09:17.083Z,6.90
2023-05-30T11:11:55.996Z,11.73
2023-05-30T11:14:37.141Z,6.13
2023-05-30T11:17:09.647Z,7.03
2023-05-30T11:19:40.118Z,7.50
2023-05-30T11:22:11.653Z,6.78
2023-05-30T11:24:39.276Z,7.22
2023-05-30T11:27:09.195Z,7.68
2023-05-30T11:29:38.088Z,6.28
2023-05-30T11:32:08.664Z,8.07
2023-05-30T11:34:36.465Z,7.60
2023-05-30T11:37:05.107Z,8.18
2023-05-30T11:39:33.651Z,7.53
2023-05-30T11:42:02.305Z,4.78
2023-05-30T11:44:33.196Z,6.47
2023-05-30T11:47:31.713Z,8.40
2023-05-30T11:49:59.151Z,5.28
2023-05-30T11:52:26.507Z,5.78
2023-05-30T11:55:00.078Z,6.90
2023-05-30T11:59:57.302Z,6.15
2023-05-30T12:02:33.936Z,6.90
2023-05-30T12:05:03.147Z,7.70
2023-05-30T12:07:33.192Z,6.68
2023-05-30T12:10:00.321Z,7.85
2023-05-30T12:12:28.521Z,9.27
2023-05-30T12:15:00.357Z,8.95
2023-05-30T12:17:28.161Z,6.05
2023-05-30T12:20:01.223Z,7.43
2023-05-30T12:22:34.563Z,5.93
2023-05-30T12:25:10.644Z,7.40
2023-05-30T12:27:48.244Z,8.63
2023-05-30T12:30:18.159Z,11.43
2023-05-30T12:32:48.751Z,7.03
2023-05-30T12:35:19.573Z,6.63
2023-05-30T12:37:46.589Z,8.98
2023-05-30T12:40:13.783Z,5.65
2023-05-30T12:42:47.396Z,7.00
2023-05-30T12:45:15.720Z,10.13
2023-05-30T12:47:42.753Z,8.38
2023-05-30T12:50:10.406Z,7.45
2023-05-30T12:52:37.296Z,11.43
2023-05-30T12:55:04.715Z,6.47
2023-05-30T12:57:32.552Z,6.32
2023-05-30T12:59:59.796Z,6.78
2023-05-30T13:02:27.235Z,10.02
2023-05-30T13:04:55.766Z,7.00
2023-05-30T13:07:23.202Z,7.95
2023-05-30T13:09:50.653Z,10.90
2023-05-30T13:12:19.130Z,6.57
2023-05-30T13:14:47.706Z,9.82
2023-05-30T13:17:15.108Z,9.05
2023-05-30T13:19:42.174Z,7.68
2023-05-30T13:22:11.575Z,6.75
2023-05-30T13:24:39.560Z,7.85
2023-05-30T13:27:07.742Z,6.82
2023-05-30T13:29:35.845Z,9.52
2023-05-30T13:32:03.015Z,10.52
2023-05-30T13:34:30.826Z,8.13
2023-05-30T13:36:58.772Z,7.57
2023-05-30T13:39:26.539Z,9.70
2023-05-30T13:41:53.469Z,7.35
2023-05-30T13:44:20.958Z,8.98
2023-05-30T13:46:47.970Z,14.43
2023-05-30T13:49:15.011Z,6.57
2023-05-30T13:51:43.463Z,10.45
2023-05-30T13:54:10.591Z,6.00
2023-05-30T13:56:37.574Z,6.65
2023-05-30T13:59:04.594Z,8.68
2023-05-30T14:01:31.796Z,8.25
2023-05-30T14:04:00.971Z,8.98
2023-05-30T14:06:28.271Z,9.45
2023-05-30T14:08:55.461Z,9.18
2023-05-30T14:11:22.698Z,8.93
2023-05-30T14:13:50.429Z,10.23
2023-05-30T14:16:19.548Z,6.30
2023-05-30T14:18:47.397Z,12.30
2023-05-30T14:21:15.761Z,5.97
2023-05-30T14:23:43.302Z,6.60
2023-05-30T14:26:10.547Z,9.07
2023-05-30T14:28:40.314Z,7.47
2023-05-30T14:31:11.330Z,8.90
2023-05-30T14:33:38.515Z,9.20
2023-05-30T14:36:06.510Z,10.20
2023-05-30T14:38:33.509Z,10.75
2023-05-30T14:41:02.437Z,6.75
2023-05-30T14:43:29.924Z,8.40
2023-05-30T14:45:57.023Z,9.10
2023-05-30T14:48:24.064Z,7.85
2023-05-30T14:50:51.118Z,8.27
2023-05-30T14:53:18.140Z,8.77
2023-05-30T14:55:45.991Z,10.55
2023-05-30T14:58:12.936Z,6.38
2023-05-30T15:00:39.962Z,9.63
2023-05-30T15:03:07.362Z,10.70
2023-05-30T15:05:34.686Z,9.15
2023-05-30T15:08:01.959Z,14.20
2023-05-30T15:10:29.074Z,6.18
2023-05-30T15:12:56.058Z,6.85
2023-05-30T15:15:23.432Z,8.38
2023-05-30T15:17:50.495Z,13.73
2023-05-30T15:20:18.140Z,12.80
2023-05-30T15:22:45.060Z,6.68
2023-05-30T15:25:11.984Z,9.15
2023-05-30T15:27:38.925Z,10.35
2023-05-30T15:30:06.778Z,7.47
2023-05-30T15:32:33.724Z,6.93
2023-05-30T15:35:00.904Z,6.35
2023-05-30T15:37:27.886Z,5.78
2023-05-30T15:39:55.573Z,7.22
2023-05-30T15:42:22.581Z,7.28
2023-05-30T15:44:49.504Z,5.45
2023-05-30T15:47:16.459Z,8.32
2023-05-30T15:49:43.607Z,8.60
2023-05-30T15:52:10.777Z,7.90
2023-05-30T15:54:37.767Z,5.60
2023-05-30T15:57:06.450Z,8.93
2023-05-30T15:59:33.455Z,6.07
2023-05-30T16:02:03.129Z,4.22
2023-05-30T16:04:30.298Z,30.20
2023-05-30T16:06:58.431Z,5.00
2023-05-30T16:09:25.483Z,8.00
2023-05-30T16:11:52.512Z,5.28
2023-05-30T16:14:21.552Z,6.78
2023-05-30T16:16:48.487Z,9.07
2023-05-30T16:19:15.526Z,6.72
2023-05-30T16:21:42.554Z,7.10
2023-05-30T16:24:09.844Z,6.05
2023-05-30T16:26:36.854Z,5.47
2023-05-30T16:29:03.976Z,8.00
2023-05-30T16:31:31.140Z,7.80
2023-05-30T16:33:58.191Z,6.28
2023-05-30T16:36:28.742Z,6.47
2023-05-30T16:38:56.524Z,4.97
2023-05-30T16:41:23.810Z,6.95
2023-05-30T16:43:52.293Z,8.57
2023-05-30T16:46:19.250Z,6.28
2023-05-30T16:48:46.455Z,8.05
2023-05-30T16:51:19.820Z,7.57
2023-05-30T16:53:47.349Z,9.07
2023-05-30T16:56:17.971Z,3.97
2023-05-30T16:58:46.420Z,5.05
2023-05-30T17:01:14.266Z,4.80
2023-05-30T17:03:44.388Z,5.97
2023-05-30T17:06:11.916Z,5.95
2023-05-30T17:08:39.237Z,6.18
2023-05-30T17:11:06.307Z,6.63
2023-05-30T17:13:33.969Z,7.57
2023-05-30T17:16:01.736Z,6.07
2023-05-30T17:18:28.906Z,11.68
2023-05-30T17:20:57.130Z,7.13
2023-05-30T17:23:27.522Z,8.45
2023-05-30T17:26:02.141Z,6.55
2023-05-30T17:28:30.702Z,5.65
2023-05-30T17:30:57.899Z,8.80
2023-05-30T17:33:24.982Z,5.82
2023-05-30T17:35:52.480Z,7.45
2023-05-30T17:38:19.753Z,4.55
2023-05-30T17:40:48.607Z,4.45
2023-05-30T17:43:17.437Z,4.55
2023-05-30T17:45:44.901Z,6.75
2023-05-30T17:48:12.273Z,7.55
2023-05-30T17:50:40.158Z,7.22
2023-05-30T17:53:07.650Z,7.80
2023-05-30T17:55:34.896Z,6.15
2023-05-30T17:58:02.246Z,6.38
2023-05-30T18:00:30.624Z,5.82
2023-05-30T18:02:58.543Z,6.90
2023-05-30T18:05:27.953Z,9.63
2023-05-30T18:07:55.036Z,6.70
2023-05-30T18:10:22.207Z,10.63
2023-05-30T18:12:49.253Z,7.00
2023-05-30T18:15:16.300Z,11.60
2023-05-30T18:17:43.441Z,9.02
2023-05-30T18:20:11.764Z,6.50
2023-05-30T18:22:39.424Z,6.13
2023-05-30T18:25:07.197Z,10.88
2023-05-30T18:27:34.181Z,4.88
2023-05-30T18:30:02.068Z,9.23
2023-05-30T18:32:29.803Z,8.95
2023-05-30T18:34:56.965Z,6.18
2023-05-30T18:37:23.902Z,10.45
2023-05-30T18:39:52.158Z,8.77
2023-05-30T18:42:19.115Z,7.68
2023-05-30T18:44:46.283Z,9.65
2023-05-30T18:47:14.968Z,8.75
2023-05-30T18:49:43.572Z,7.03
2023-05-30T18:52:11.407Z,7.47
2023-05-30T18:54:40.088Z,5.72
2023-05-30T18:57:08.511Z,5.53
2023-05-30T18:59:37.343Z,1.87
2023-05-30T19:02:04.752Z,4.28
2023-05-30T19:04:31.855Z,5.53
2023-05-30T19:06:59.714Z,7.20
2023-05-30T19:09:26.854Z,5.88
2023-05-30T19:11:53.894Z,3.53
2023-05-30T19:14:21.273Z,7.78
2023-05-30T19:16:48.346Z,6.85
2023-05-30T19:19:16.184Z,5.65
2023-05-30T19:21:43.378Z,4.07
2023-05-30T19:24:10.527Z,5.53
2023-05-30T19:26:37.500Z,4.72
2023-05-30T19:29:04.442Z,5.38
2023-05-30T19:31:31.549Z,5.63
2023-05-30T19:33:58.474Z,9.30
2023-05-30T19:36:25.642Z,3.42
2023-05-30T19:38:52.809Z,6.10
2023-05-30T19:41:21.957Z,5.05
2023-05-30T19:43:50.403Z,6.53
2023-05-30T19:46:17.411Z,6.93
2023-05-30T19:48:44.375Z,6.47
2023-05-30T19:51:11.492Z,6.65
2023-05-30T19:53:38.459Z,12.80
2023-05-30T19:56:05.972Z,7.13
2023-05-30T19:58:33.103Z,6.88
2023-05-30T20:01:11.056Z,14.60
2023-05-30T20:03:39.142Z,9.65
2023-05-30T20:06:06.806Z,13.63
2023-05-30T20:08:33.956Z,12.57
2023-05-30T20:11:01.375Z,7.88
2023-05-30T20:13:30.616Z,8.10
2023-05-30T20:15:57.666Z,11.40
2023-05-30T20:18:24.645Z,7.22
2023-05-30T20:20:56.472Z,7.05
2023-05-30T20:23:24.682Z,8.02
2023-05-30T20:25:51.741Z,5.93
2023-05-30T20:28:20.672Z,7.68
2023-05-30T20:30:47.684Z,13.07
2023-05-30T20:33:15.011Z,6.72
2023-05-30T20:35:42.000Z,9.10
2023-05-30T20:38:08.957Z,9.75
2023-05-30T20:40:36.424Z,6.70
2023-05-30T20:43:03.398Z,12.30
2023-05-30T20:45:30.904Z,15.85
2023-05-30T20:47:58.035Z,12.15
2023-05-30T20:50:25.911Z,6.85
2023-05-30T20:52:55.421Z,10.65
2023-05-30T20:55:26.073Z,8.63
2023-05-30T20:57:53.060Z,10.05
2023-05-30T21:00:20.522Z,8.32
2023-05-30T21:02:47.714Z,10.20
2023-05-30T21:05:14.802Z,7.97
2023-05-30T21:07:41.766Z,8.70
2023-05-30T21:10:10.164Z,8.70
2023-05-30T21:12:37.690Z,7.88
2023-05-30T21:15:05.406Z,6.47
2023-05-30T21:17:32.385Z,10.18
2023-05-30T21:19:59.395Z,7.28
2023-05-30T21:22:26.604Z,9.27
2023-05-30T21:24:53.587Z,10.15
2023-05-30T21:27:20.631Z,9.55
2023-05-30T21:29:47.652Z,8.57
2023-05-30T21:32:14.642Z,6.75
2023-05-30T21:34:41.539Z,9.60
2023-05-30T21:37:08.473Z,7.78
2023-05-30T21:39:36.235Z,8.98
2023-05-30T21:42:03.748Z,8.45
2023-05-30T21:44:30.905Z,10.90
2023-05-30T21:46:57.828Z,6.70
2023-05-30T21:49:24.716Z,8.48
2023-05-30T21:51:51.714Z,11.13
2023-05-30T21:54:43.729Z,7.90
2023-05-30T21:57:10.846Z,10.02
2023-05-30T21:59:38.777Z,8.90
2023-05-30T22:02:07.475Z,8.80
2023-05-30T22:04:35.483Z,11.55
2023-05-30T22:07:04.014Z,9.00
2023-05-30T22:09:31.079Z,7.47
2023-05-30T22:11:58.051Z,9.93
2023-05-30T22:14:25.105Z,7.05
2023-05-30T22:16:52.045Z,6.35
2023-05-30T22:19:19.020Z,10.68
2023-05-30T22:22:01.439Z,6.97
2023-05-30T22:24:30.306Z,6.72
2023-05-30T22:26:57.293Z,8.50
2023-05-30T22:29:24.268Z,6.68
2023-05-30T22:31:51.226Z,6.53
2023-05-30T22:34:18.332Z,7.70
2023-05-30T22:36:47.188Z,6.50
2023-05-30T22:39:14.531Z,6.07
2023-05-30T22:41:41.808Z,9.88
2023-05-30T22:44:08.788Z,7.10
2023-05-30T22:46:35.697Z,6.45
2023-05-30T22:49:02.662Z,5.95
2023-05-30T22:51:29.721Z,8.82
2023-05-30T22:54:01.011Z,8.40
2023-05-30T22:56:28.887Z,7.25
2023-05-30T22:58:55.961Z,7.63
2023-05-30T23:01:22.937Z,6.93
2023-05-30T23:03:49.939Z,8.32
2023-05-30T23:06:16.857Z,7.80
2023-05-30T23:08:43.862Z,8.05
2023-05-30T23:11:11.231Z,7.05
2023-05-30T23:13:38.839Z,6.87
2023-05-30T23:16:06.387Z,6.95
2023-05-30T23:18:33.780Z,6.97
2023-05-30T23:21:01.302Z,11.27
2023-05-30T23:23:28.832Z,6.78
2023-05-30T23:25:55.872Z,8.32
2023-05-30T23:28:23.429Z,9.55
2023-05-30T23:30:50.335Z,8.52
2023-05-30T23:33:17.323Z,9.88
2023-05-30T23:35:44.269Z,11.50
2023-05-30T23:38:11.723Z,10.27
2023-05-30T23:40:38.669Z,8.98
2023-05-30T23:43:05.641Z,10.55
2023-05-30T23:45:32.568Z,8.30
2023-05-30T23:47:59.618Z,8.77
2023-05-30T23:50:26.732Z,9.77
2023-05-30T23:52:53.630Z,9.40
2023-05-30T23:55:20.689Z,11.13
2023-05-30T23:57:47.808Z,8.57
